createdAt,value
2024-02-11T00:02:01.364Z,6.10
2024-02-11T00:04:29.135Z,5.30
2024-02-11T00:06:56.934Z,6.63
2024-02-11T00:09:25.369Z,5.80
2024-02-11T00:11:53.480Z,6.83
2024-02-11T00:14:21.918Z,6.57
2024-02-11T00:16:51.182Z,7.03
2024-02-11T00:19:18.938Z,5.77
2024-02-11T00:21:46.793Z,6.80
2024-02-11T00:24:15.094Z,7.03
2024-02-11T00:26:43.224Z,8.93
2024-02-11T00:29:11.259Z,8.10
2024-02-11T00:31:39.388Z,8.97
2024-02-11T00:34:09.041Z,7.93
2024-02-11T00:36:37.722Z,8.70
2024-02-11T00:39:06.541Z,8.57
2024-02-11T00:41:34.301Z,9.93
2024-02-11T00:44:02.029Z,9.23
2024-02-11T00:46:29.942Z,9.67
2024-02-11T00:48:57.806Z,8.67
2024-02-11T00:51:28.479Z,9.43
2024-02-11T00:53:57.463Z,8.23
2024-02-11T00:56:25.543Z,8.70
2024-02-11T00:58:53.450Z,7.80
2024-02-11T01:01:22.021Z,7.80
2024-02-11T01:03:57.311Z,8.17
2024-02-11T01:06:25.237Z,8.17
2024-02-11T01:08:54.463Z,7.60
2024-02-11T01:11:22.218Z,8.60
2024-02-11T01:13:51.143Z,8.07
2024-02-11T01:16:19.572Z,7.93
2024-02-11T01:18:47.925Z,6.63
2024-02-11T01:21:16.095Z,8.00
2024-02-11T01:23:43.799Z,7.67
2024-02-11T01:26:12.847Z,6.87
2024-02-11T01:28:40.702Z,7.67
2024-02-11T01:31:08.886Z,6.60
2024-02-11T01:33:36.612Z,7.33
2024-02-11T01:36:04.927Z,7.07
2024-02-11T01:38:32.725Z,9.73
2024-02-11T01:41:00.528Z,7.60
2024-02-11T01:43:30.932Z,8.03
2024-02-11T01:45:59.547Z,6.93
2024-02-11T01:48:30.976Z,8.17
2024-02-11T01:50:59.394Z,6.83
2024-02-11T01:53:29.708Z,7.77
2024-02-11T01:55:58.203Z,7.37
2024-02-11T01:58:26.396Z,9.33
2024-02-11T02:00:55.764Z,7.97
2024-02-11T02:03:26.272Z,9.07
2024-02-11T02:05:54.274Z,7.43
2024-02-11T02:10:50.016Z,9.13
2024-02-11T02:13:17.689Z,7.57
2024-02-11T02:15:45.517Z,8.53
2024-02-11T02:18:14.620Z,8.20
2024-02-11T02:20:42.519Z,7.97
2024-02-11T02:23:11.941Z,7.87
2024-02-11T02:25:39.841Z,9.63
2024-02-11T02:28:08.328Z,9.53
2024-02-11T02:30:36.344Z,10.37
2024-02-11T02:33:04.165Z,7.90
2024-02-11T02:35:34.682Z,9.37
2024-02-11T02:38:02.519Z,8.60
2024-02-11T02:40:32.410Z,9.20
2024-02-11T02:43:00.198Z,10.10
2024-02-11T02:45:28.025Z,9.57
2024-02-11T02:47:55.878Z,8.83
2024-02-11T02:50:23.941Z,10.33
2024-02-11T02:52:51.774Z,9.83
2024-02-11T02:55:21.431Z,10.03
2024-02-11T02:57:52.318Z,10.20
2024-02-11T03:00:21.008Z,9.43
2024-02-11T03:02:48.743Z,9.67
2024-02-11T03:05:16.652Z,9.40
2024-02-11T03:07:44.521Z,9.70
2024-02-11T03:10:17.506Z,10.07
2024-02-11T03:12:45.306Z,10.73
2024-02-11T03:15:14.537Z,10.80
2024-02-11T03:17:43.183Z,10.37
2024-02-11T03:20:16.946Z,10.70
2024-02-11T03:22:45.124Z,13.27
2024-02-11T03:25:14.209Z,10.63
2024-02-11T03:27:42.712Z,12.07
2024-02-11T03:30:12.485Z,11.47
2024-02-11T03:32:42.852Z,12.37
2024-02-11T03:35:12.256Z,11.53
2024-02-11T03:37:41.326Z,10.90
2024-02-11T03:40:12.011Z,10.40
2024-02-11T03:42:39.918Z,9.93
2024-02-11T03:45:10.159Z,9.97
2024-02-11T03:47:38.280Z,10.60
2024-02-11T03:50:11.042Z,8.20
2024-02-11T03:52:39.125Z,5.60
2024-02-11T03:55:08.589Z,1.00
2024-02-11T03:57:36.981Z,0.73
2024-02-11T04:00:20.648Z,0.30
2024-02-11T04:02:48.417Z,0.20
2024-02-11T04:05:18.260Z,0.00
2024-02-11T04:07:48.124Z,0.10
2024-02-11T04:10:20.292Z,0.00
2024-02-11T04:12:48.796Z,0.00
2024-02-11T04:15:17.580Z,0.03
2024-02-11T04:17:49.389Z,0.10
2024-02-11T04:20:26.300Z,0.20
2024-02-11T04:22:56.533Z,0.00
2024-02-11T04:25:26.561Z,0.10
2024-02-11T04:27:54.383Z,0.00
2024-02-11T04:30:22.247Z,0.10
2024-02-11T04:32:50.884Z,0.10
2024-02-11T04:35:20.523Z,0.00
2024-02-11T04:37:50.473Z,0.20
2024-02-11T04:40:19.114Z,0.07
2024-02-11T04:42:48.828Z,0.10
2024-02-11T04:45:17.769Z,0.10
2024-02-11T04:47:47.042Z,0.27
2024-02-11T04:50:17.147Z,0.10
2024-02-11T04:52:55.356Z,0.17
2024-02-11T04:55:25.501Z,0.30
2024-02-11T04:57:53.809Z,0.20
2024-02-11T05:00:27.822Z,0.20
2024-02-11T05:02:56.642Z,0.73
2024-02-11T05:05:30.243Z,0.40
2024-02-11T05:08:01.974Z,0.63
2024-02-11T05:10:32.126Z,0.77
2024-02-11T05:12:59.798Z,1.10
2024-02-11T05:15:28.214Z,0.60
2024-02-11T05:17:57.056Z,1.30
2024-02-11T05:20:26.843Z,1.13
2024-02-11T05:22:56.540Z,1.10
2024-02-11T05:25:27.270Z,1.23
2024-02-11T05:27:58.333Z,0.70
2024-02-11T05:30:28.058Z,0.77
2024-02-11T05:32:58.357Z,1.20
2024-02-11T05:35:27.072Z,1.20
2024-02-11T05:37:58.491Z,1.07
2024-02-11T05:40:28.739Z,0.73
2024-02-11T05:42:57.329Z,0.70
2024-02-11T05:45:25.757Z,0.90
2024-02-11T05:47:54.689Z,0.67
2024-02-11T05:50:24.081Z,0.60
2024-02-11T05:52:52.602Z,0.67
2024-02-11T05:55:20.554Z,0.80
2024-02-11T05:57:51.390Z,0.80
2024-02-11T06:00:25.776Z,1.03
2024-02-11T06:02:55.329Z,1.00
2024-02-11T06:05:24.114Z,0.90
2024-02-11T06:07:53.392Z,1.23
2024-02-11T06:10:21.559Z,0.60
2024-02-11T06:12:51.739Z,0.70
2024-02-11T06:15:21.511Z,0.57
2024-02-11T06:17:50.092Z,0.63
2024-02-11T06:20:19.865Z,0.40
2024-02-11T06:22:48.915Z,0.60
2024-02-11T06:25:17.403Z,0.53
2024-02-11T06:27:45.408Z,0.80
2024-02-11T06:30:14.942Z,0.83
2024-02-11T06:32:43.979Z,1.73
2024-02-11T06:35:12.720Z,0.60
2024-02-11T06:37:42.976Z,1.00
2024-02-11T06:40:15.400Z,0.50
2024-02-11T06:42:44.393Z,0.80
2024-02-11T06:45:14.608Z,1.17
2024-02-11T06:47:43.326Z,0.70
2024-02-11T06:50:15.822Z,0.73
2024-02-11T06:52:44.499Z,1.00
2024-02-11T06:55:15.233Z,1.03
2024-02-11T06:57:44.266Z,1.00
2024-02-11T07:00:16.521Z,1.30
2024-02-11T07:02:46.876Z,0.53
2024-02-11T07:05:18.076Z,0.67
2024-02-11T07:07:46.899Z,1.20
2024-02-11T07:10:16.252Z,1.53
2024-02-11T07:12:45.883Z,0.87
2024-02-11T07:15:16.701Z,0.63
2024-02-11T07:17:45.953Z,0.77
2024-02-11T07:20:16.788Z,0.67
2024-02-11T07:22:46.519Z,0.77
2024-02-11T07:25:17.642Z,0.73
2024-02-11T07:27:46.134Z,0.87
2024-02-11T07:30:16.327Z,0.80
2024-02-11T07:32:46.395Z,0.87
2024-02-11T07:35:17.093Z,0.80
2024-02-11T07:37:45.813Z,0.90
2024-02-11T07:40:17.366Z,0.80
2024-02-11T07:42:46.982Z,1.07
2024-02-11T07:45:17.474Z,1.63
2024-02-11T07:47:48.980Z,1.00
2024-02-11T07:50:18.123Z,1.23
2024-02-11T07:52:47.884Z,1.47
2024-02-11T07:55:16.110Z,1.10
2024-02-11T07:57:45.158Z,1.13
2024-02-11T08:00:16.039Z,1.27
2024-02-11T08:02:43.897Z,1.83
2024-02-11T08:05:13.086Z,1.10
2024-02-11T08:07:41.795Z,1.27
2024-02-11T08:10:10.404Z,1.00
2024-02-11T08:12:38.332Z,1.30
2024-02-11T08:15:07.117Z,1.37
2024-02-11T08:17:37.483Z,1.10
2024-02-11T08:20:06.505Z,1.00
2024-02-11T08:22:37.415Z,0.90
2024-02-11T08:25:05.846Z,1.43
2024-02-11T08:27:33.519Z,2.23
2024-02-11T08:30:01.344Z,1.20
2024-02-11T08:32:30.252Z,0.83
2024-02-11T08:34:59.422Z,1.03
2024-02-11T08:37:27.102Z,1.33
2024-02-11T08:39:54.972Z,1.83
2024-02-11T08:42:22.644Z,1.93
2024-02-11T08:44:52.293Z,1.40
2024-02-11T08:47:20.170Z,1.10
2024-02-11T08:49:49.981Z,1.70
2024-02-11T08:52:19.051Z,1.17
2024-02-11T08:54:47.517Z,1.20
2024-02-11T08:57:16.876Z,2.00
2024-02-11T08:59:44.553Z,1.47
2024-02-11T09:02:12.523Z,1.33
2024-02-11T09:04:40.874Z,1.80
2024-02-11T09:07:10.224Z,1.33
2024-02-11T09:09:39.317Z,1.63
2024-02-11T09:12:08.671Z,1.40
2024-02-11T09:14:38.377Z,2.53
2024-02-11T09:17:08.776Z,2.27
2024-02-11T09:19:36.613Z,1.70
2024-02-11T09:22:07.240Z,2.17
2024-02-11T09:24:35.728Z,1.70
2024-02-11T09:27:05.266Z,1.60
2024-02-11T09:29:34.395Z,2.70
2024-02-11T09:32:04.336Z,1.80
2024-02-11T09:34:32.741Z,2.33
2024-02-11T09:37:00.452Z,2.70
2024-02-11T09:39:28.466Z,2.37
2024-02-11T09:41:56.291Z,2.73
2024-02-11T09:44:28.656Z,2.73
2024-02-11T09:47:00.770Z,2.33
2024-02-11T09:49:29.776Z,2.90
2024-02-11T09:52:04.000Z,2.83
2024-02-11T09:54:34.019Z,2.50
2024-02-11T09:57:01.741Z,3.87
2024-02-11T09:59:30.979Z,1.87
2024-02-11T10:02:00.823Z,2.63
2024-02-11T10:04:31.793Z,2.63
2024-02-11T10:07:01.077Z,2.30
2024-02-11T10:09:28.843Z,2.83
2024-02-11T10:11:57.813Z,2.47
2024-02-11T10:14:30.824Z,3.47
2024-02-11T10:17:01.156Z,2.90
2024-02-11T10:19:30.898Z,2.67
2024-02-11T10:22:13.944Z,5.17
2024-02-11T10:24:48.825Z,3.20
2024-02-11T10:27:16.550Z,3.37
2024-02-11T10:29:45.963Z,3.87
2024-02-11T10:32:16.569Z,3.20
2024-02-11T10:34:45.801Z,4.20
2024-02-11T10:37:16.144Z,2.83
2024-02-11T10:39:45.287Z,2.67
2024-02-11T10:42:15.038Z,2.80
2024-02-11T10:44:44.910Z,2.80
2024-02-11T10:47:14.242Z,2.93
2024-02-11T10:49:43.622Z,2.80
2024-02-11T10:52:13.037Z,2.83
2024-02-11T10:54:43.778Z,3.10
2024-02-11T10:57:21.133Z,3.17
2024-02-11T10:59:54.187Z,3.00
2024-02-11T11:02:23.792Z,3.00
2024-02-11T11:04:55.853Z,3.43
2024-02-11T11:07:26.438Z,1.90
2024-02-11T11:09:55.508Z,2.77
2024-02-11T11:12:26.180Z,2.93
2024-02-11T11:14:58.431Z,2.23
2024-02-11T11:17:27.011Z,2.30
2024-02-11T11:20:00.641Z,2.73
2024-02-11T11:22:30.996Z,2.17
2024-02-11T11:24:59.137Z,2.77
2024-02-11T11:27:27.995Z,1.90
2024-02-11T11:29:55.787Z,2.43
2024-02-11T11:32:24.733Z,2.43
2024-02-11T11:34:53.436Z,1.77
2024-02-11T11:37:25.388Z,1.80
2024-02-11T11:39:55.877Z,1.77
2024-02-11T11:42:23.733Z,1.83
2024-02-11T11:44:51.421Z,1.87
2024-02-11T11:47:22.313Z,1.57
2024-02-11T11:49:52.449Z,1.90
2024-02-11T11:52:22.635Z,1.90
2024-02-11T11:54:50.361Z,1.77
2024-02-11T11:57:19.456Z,1.17
2024-02-11T11:59:57.556Z,1.50
2024-02-11T12:02:26.393Z,1.90
2024-02-11T12:04:54.621Z,1.60
2024-02-11T12:07:25.043Z,1.00
2024-02-11T12:09:53.636Z,1.20
2024-02-11T12:12:22.263Z,2.33
2024-02-11T12:14:51.361Z,1.47
2024-02-11T12:17:19.636Z,2.33
2024-02-11T12:19:49.634Z,2.40
2024-02-11T12:22:17.650Z,1.70
2024-02-11T12:24:49.386Z,1.90
2024-02-11T12:27:19.349Z,1.37
2024-02-11T12:29:54.665Z,2.00
2024-02-11T12:32:26.480Z,2.67
2024-02-11T12:34:57.769Z,1.80
2024-02-11T12:37:29.270Z,2.20
2024-02-11T12:39:59.978Z,1.70
2024-02-11T12:42:28.066Z,2.20
2024-02-11T12:44:56.555Z,1.60
2024-02-11T12:47:25.109Z,1.47
2024-02-11T12:49:53.222Z,1.83
2024-02-11T12:52:21.167Z,1.40
2024-02-11T12:54:49.014Z,1.43
2024-02-11T12:57:18.055Z,1.83
2024-02-11T12:59:45.736Z,1.30
2024-02-11T13:02:13.721Z,1.43
2024-02-11T13:04:41.879Z,1.40
2024-02-11T13:07:10.008Z,2.40
2024-02-11T13:09:38.171Z,1.83
2024-02-11T13:12:06.991Z,1.37
2024-02-11T13:14:36.059Z,3.53
2024-02-11T13:17:04.265Z,1.63
2024-02-11T13:19:32.520Z,1.57
2024-02-11T13:22:00.799Z,1.10
2024-02-11T13:24:28.873Z,1.73
2024-02-11T13:26:56.716Z,1.00
2024-02-11T13:29:25.066Z,1.50
2024-02-11T13:31:54.248Z,1.67
2024-02-11T13:34:22.352Z,0.90
2024-02-11T13:36:50.246Z,1.20
2024-02-11T13:39:19.457Z,0.97
2024-02-11T13:41:47.356Z,1.17
2024-02-11T13:44:15.155Z,1.30
2024-02-11T13:46:42.940Z,1.33
2024-02-11T13:49:12.288Z,1.73
2024-02-11T13:51:40.480Z,1.37
2024-02-11T13:54:08.209Z,1.77
2024-02-11T13:56:36.039Z,1.03
2024-02-11T13:59:03.771Z,1.03
2024-02-11T14:01:35.143Z,0.83
2024-02-11T14:04:03.903Z,0.60
2024-02-11T14:06:33.195Z,1.43
2024-02-11T14:09:00.992Z,1.00
2024-02-11T14:11:28.850Z,0.90
2024-02-11T14:13:56.587Z,1.17
2024-02-11T14:16:24.593Z,1.40
2024-02-11T14:18:52.311Z,1.00
2024-02-11T14:21:20.823Z,1.27
2024-02-11T14:23:50.475Z,1.00
2024-02-11T14:26:19.421Z,1.37
2024-02-11T14:28:49.171Z,1.10
2024-02-11T14:31:17.179Z,1.13
2024-02-11T14:33:45.063Z,0.87
2024-02-11T14:36:14.166Z,0.77
2024-02-11T14:38:43.478Z,1.50
2024-02-11T14:41:13.077Z,1.03
2024-02-11T14:43:41.525Z,1.40
2024-02-11T14:46:10.290Z,0.97
2024-02-11T14:48:38.567Z,1.20
2024-02-11T14:51:06.870Z,1.10
2024-02-11T14:53:34.723Z,1.07
2024-02-11T14:56:02.879Z,1.20
2024-02-11T14:58:33.052Z,0.80
2024-02-11T15:01:02.369Z,2.23
2024-02-11T15:03:37.123Z,1.10
2024-02-11T15:06:06.199Z,0.90
2024-02-11T15:08:35.447Z,1.03
2024-02-11T15:11:04.994Z,1.10
2024-02-11T15:13:34.560Z,0.90
2024-02-11T15:16:03.286Z,1.37
2024-02-11T15:18:31.020Z,1.13
2024-02-11T15:20:58.699Z,1.00
2024-02-11T15:23:26.532Z,1.90
2024-02-11T15:25:56.751Z,1.73
2024-02-11T15:28:24.507Z,0.87
2024-02-11T15:30:54.985Z,1.10
2024-02-11T15:33:24.433Z,1.33
2024-02-11T15:35:56.582Z,1.57
2024-02-11T15:38:27.118Z,1.57
2024-02-11T15:40:56.393Z,0.90
2024-02-11T15:43:24.298Z,1.37
2024-02-11T15:45:53.403Z,1.70
2024-02-11T15:48:22.306Z,1.13
2024-02-11T15:50:50.880Z,1.10
2024-02-11T15:53:18.630Z,0.90
2024-02-11T15:55:46.647Z,1.27
2024-02-11T15:58:15.119Z,1.00
2024-02-11T16:00:46.116Z,2.63
2024-02-11T16:03:16.878Z,0.90
2024-02-11T16:05:45.977Z,1.03
2024-02-11T16:08:13.851Z,1.07
2024-02-11T16:10:41.947Z,1.07
2024-02-11T16:13:10.274Z,0.60
2024-02-11T16:15:38.088Z,1.73
2024-02-11T16:18:06.264Z,1.23
2024-02-11T16:20:35.760Z,1.63
2024-02-11T16:23:04.063Z,0.80
2024-02-11T16:25:33.483Z,2.03
2024-02-11T16:28:05.865Z,1.40
2024-02-11T16:30:35.696Z,2.27
2024-02-11T16:33:04.210Z,1.47
2024-02-11T16:35:33.023Z,1.17
2024-02-11T16:38:02.416Z,1.17
2024-02-11T16:40:30.963Z,1.77
2024-02-11T16:42:58.820Z,1.13
2024-02-11T16:45:28.011Z,1.53
2024-02-11T16:47:57.198Z,2.03
2024-02-11T16:50:25.980Z,1.67
2024-02-11T16:52:54.039Z,3.07
2024-02-11T16:55:23.577Z,1.70
2024-02-11T16:57:52.037Z,1.50
2024-02-11T17:00:21.438Z,2.13
2024-02-11T17:02:49.491Z,1.70
2024-02-11T17:05:17.913Z,1.43
2024-02-11T17:07:45.884Z,2.17
2024-02-11T17:10:14.278Z,2.10
2024-02-11T17:12:45.500Z,1.10
2024-02-11T17:15:13.234Z,1.23
2024-02-11T17:17:41.083Z,1.70
2024-02-11T17:20:11.079Z,1.37
2024-02-11T17:22:39.264Z,1.43
2024-02-11T17:25:07.976Z,1.80
2024-02-11T17:27:35.720Z,2.13
2024-02-11T17:30:07.623Z,1.57
2024-02-11T17:32:42.839Z,2.43
2024-02-11T17:35:17.011Z,1.37
2024-02-11T17:37:44.832Z,2.40
2024-02-11T17:40:13.446Z,2.50
2024-02-11T17:42:41.353Z,1.77
2024-02-11T17:45:14.285Z,1.97
2024-02-11T17:47:43.219Z,1.50
2024-02-11T17:50:15.791Z,1.10
2024-02-11T17:52:44.528Z,1.40
2024-02-11T17:55:14.108Z,1.47
2024-02-11T17:57:44.501Z,1.40
2024-02-11T18:00:19.185Z,1.50
2024-02-11T18:02:47.985Z,1.03
2024-02-11T18:05:16.091Z,1.50
2024-02-11T18:07:47.989Z,1.57
2024-02-11T18:10:16.230Z,1.87
2024-02-11T18:12:45.350Z,1.50
2024-02-11T18:15:15.134Z,2.43
2024-02-11T18:17:42.912Z,1.27
2024-02-11T18:20:11.200Z,1.87
2024-02-11T18:22:41.078Z,1.20
2024-02-11T18:25:10.364Z,1.20
2024-02-11T18:27:38.610Z,1.90
2024-02-11T18:30:08.537Z,1.47
2024-02-11T18:32:38.537Z,1.97
2024-02-11T18:35:08.199Z,1.43
2024-02-11T18:37:35.926Z,1.10
2024-02-11T18:40:06.920Z,1.83
2024-02-11T18:42:36.199Z,1.70
2024-02-11T18:45:04.290Z,1.03
2024-02-11T18:47:32.035Z,1.97
2024-02-11T18:50:01.591Z,1.80
2024-02-11T18:52:29.772Z,1.97
2024-02-11T18:54:57.602Z,1.70
2024-02-11T18:57:28.704Z,1.30
2024-02-11T18:59:56.406Z,1.47
2024-02-11T19:02:24.266Z,1.50
2024-02-11T19:04:52.751Z,1.43
2024-02-11T19:07:22.963Z,2.03
2024-02-11T19:09:52.025Z,2.27
2024-02-11T19:12:19.733Z,1.73
2024-02-11T19:14:47.487Z,2.70
2024-02-11T19:17:15.367Z,1.27
2024-02-11T19:19:43.428Z,1.83
2024-02-11T19:22:17.661Z,1.27
2024-02-11T19:24:48.824Z,2.60
2024-02-11T19:27:16.509Z,1.67
2024-02-11T19:29:44.326Z,1.60
2024-02-11T19:32:12.841Z,1.17
2024-02-11T19:34:41.375Z,1.47
2024-02-11T19:37:09.199Z,1.40
2024-02-11T19:39:37.703Z,1.33
2024-02-11T19:42:07.018Z,2.07
2024-02-11T19:44:35.493Z,3.00
2024-02-11T19:47:06.540Z,1.00
2024-02-11T19:49:35.869Z,1.73
2024-02-11T19:52:07.216Z,1.43
2024-02-11T19:54:35.234Z,2.23
2024-02-11T19:57:04.810Z,1.40
2024-02-11T19:59:34.398Z,1.27
2024-02-11T20:02:03.337Z,1.40
2024-02-11T20:04:31.781Z,1.77
2024-02-11T20:07:00.907Z,1.37
2024-02-11T20:09:28.754Z,2.70
2024-02-11T20:11:56.409Z,1.90
2024-02-11T20:14:24.339Z,1.87
2024-02-11T20:16:53.446Z,1.53
2024-02-11T20:19:24.199Z,2.10
2024-02-11T20:21:52.212Z,2.57
2024-02-11T20:24:20.087Z,2.47
2024-02-11T20:26:48.386Z,1.67
2024-02-11T20:29:16.125Z,1.80
2024-02-11T20:31:47.333Z,2.20
2024-02-11T20:34:18.157Z,1.77
2024-02-11T20:36:47.219Z,2.27
2024-02-11T20:39:16.240Z,2.07
2024-02-11T20:41:45.149Z,1.93
2024-02-11T20:44:12.981Z,2.40
2024-02-11T20:46:42.550Z,2.10
2024-02-11T20:49:11.766Z,1.20
2024-02-11T20:51:41.241Z,2.33
2024-02-11T20:54:10.816Z,2.03
2024-02-11T20:56:39.949Z,1.27
2024-02-11T20:59:09.411Z,1.83
2024-02-11T21:01:37.588Z,0.87
2024-02-11T21:04:08.891Z,1.10
2024-02-11T21:06:37.220Z,1.17
2024-02-11T21:09:12.064Z,0.83
2024-02-11T21:11:40.023Z,1.13
2024-02-11T21:14:09.985Z,1.00
2024-02-11T21:16:40.247Z,1.67
2024-02-11T21:19:11.238Z,1.17
2024-02-11T21:21:39.069Z,0.90
2024-02-11T21:24:11.766Z,0.77
2024-02-11T21:26:40.029Z,1.17
2024-02-11T21:29:09.049Z,0.67
2024-02-11T21:31:38.742Z,0.80
2024-02-11T21:34:07.546Z,0.60
2024-02-11T21:36:35.789Z,0.70
2024-02-11T21:39:03.510Z,0.63
2024-02-11T21:41:34.815Z,0.97
2024-02-11T21:44:03.342Z,0.83
2024-02-11T21:46:31.232Z,0.90
2024-02-11T21:49:00.257Z,0.80
2024-02-11T21:51:29.152Z,0.60
2024-02-11T21:53:56.914Z,0.50
2024-02-11T21:56:24.763Z,0.50
2024-02-11T21:58:53.896Z,0.43
2024-02-11T22:03:52.135Z,0.50
2024-02-11T22:06:20.111Z,0.40
2024-02-11T22:08:48.799Z,0.70
2024-02-11T22:11:16.476Z,0.43
2024-02-11T22:13:44.359Z,0.60
2024-02-11T22:16:13.776Z,0.63
2024-02-11T22:18:41.972Z,0.57
2024-02-11T22:21:09.719Z,0.50
2024-02-11T22:23:38.590Z,0.33
2024-02-11T22:26:07.400Z,0.47
2024-02-11T22:28:35.187Z,0.50
2024-02-11T22:31:03.087Z,0.53
2024-02-11T22:33:32.443Z,1.30
2024-02-11T22:36:00.210Z,0.40
2024-02-11T22:38:28.146Z,0.40
2024-02-11T22:40:56.542Z,0.47
2024-02-11T22:43:25.872Z,0.53
2024-02-11T22:45:54.979Z,0.57
2024-02-11T22:48:23.077Z,0.60
2024-02-11T22:50:53.253Z,0.30
2024-02-11T22:53:22.354Z,0.33
2024-02-11T22:55:50.106Z,0.57
2024-02-11T22:58:17.846Z,0.20
2024-02-11T23:00:46.215Z,0.30
2024-02-11T23:03:14.851Z,0.30
2024-02-11T23:05:43.061Z,0.73
2024-02-11T23:08:14.967Z,0.30
2024-02-11T23:10:43.434Z,0.57
2024-02-11T23:13:11.167Z,0.67
2024-02-11T23:15:39.038Z,0.50
2024-02-11T23:18:06.911Z,0.20
2024-02-11T23:20:35.201Z,0.43
2024-02-11T23:23:03.347Z,0.70
2024-02-11T23:25:32.494Z,0.20
2024-02-11T23:28:00.176Z,0.63
2024-02-11T23:30:28.094Z,0.27
2024-02-11T23:32:57.376Z,0.20
2024-02-11T23:35:25.360Z,0.40
2024-02-11T23:37:56.504Z,0.30
2024-02-11T23:40:25.461Z,0.50
2024-02-11T23:42:56.091Z,0.33
2024-02-11T23:45:24.064Z,0.33
2024-02-11T23:47:53.389Z,0.30
2024-02-11T23:50:21.807Z,0.40
2024-02-11T23:52:49.736Z,0.53
2024-02-11T23:55:17.737Z,0.30
2024-02-11T23:57:46.107Z,0.40
